sensor_id;sensor_type;location;lat;lon;timestamp;pressure;altitude;pressure_sealevel;temperature;humidity
54503;BME280;40411;50.090;21.954;2022-10-16T00:00:39;152156.06;;;12.37;100.00
54503;BME280;40411;50.090;21.954;2022-10-16T00:03:25;152159.94;;;12.38;100.00
54503;BME280;40411;50.090;21.954;2022-10-16T00:05:51;152130.47;;;12.26;100.00
54503;BME280;40411;50.090;21.954;2022-10-16T00:08:17;152144.56;;;12.32;100.00
54503;BME280;40411;50.090;21.954;2022-10-16T00:10:42;152152.25;;;12.35;100.00
54503;BME280;40411;50.090;21.954;2022-10-16T00:13:08;152136.88;;;12.29;100.00
54503;BME280;40411;50.090;21.954;2022-10-16T00:15:36;152147.13;;;12.33;100.00
54503;BME280;40411;50.090;21.954;2022-10-16T00:18:03;152159.94;;;12.38;100.00
54503;BME280;40411;50.090;21.954;2022-10-16T00:20:29;152167.63;;;12.41;100.00
54503;BME280;40411;50.090;21.954;2022-10-16T00:22:57;152177.91;;;12.45;100.00
54503;BME280;40411;50.090;21.954;2022-10-16T00:25:23;152195.81;;;12.52;100.00
54503;BME280;40411;50.090;21.954;2022-10-16T00:27:48;152195.81;;;12.52;100.00
54503;BME280;40411;50.090;21.954;2022-10-16T00:30:14;152206.09;;;12.57;100.00
54503;BME280;40411;50.090;21.954;2022-10-16T00:32:40;152207.34;;;12.57;100.00
54503;BME280;40411;50.090;21.954;2022-10-16T00:35:06;152174.03;;;12.44;100.00
54503;BME280;40411;50.090;21.954;2022-10-16T00:37:32;152184.25;;;12.48;100.00
54503;BME280;40411;50.090;21.954;2022-10-16T00:39:58;152177.91;;;12.45;100.00
54503;BME280;40411;50.090;21.954;2022-10-16T00:42:24;152185.59;;;12.48;100.00
54503;BME280;40411;50.090;21.954;2022-10-16T00:44:54;152190.66;;;12.50;100.00
54503;BME280;40411;50.090;21.954;2022-10-16T00:49:59;152195.81;;;12.52;100.00
54503;BME280;40411;50.090;21.954;2022-10-16T00:52:25;152197.09;;;12.53;100.00
54503;BME280;40411;50.090;21.954;2022-10-16T00:54:52;152167.63;;;12.41;100.00
54503;BME280;40411;50.090;21.954;2022-10-16T00:57:19;152153.53;;;12.36;100.00
54503;BME280;40411;50.090;21.954;2022-10-16T00:59:45;152165.06;;;12.40;100.00
54503;BME280;40411;50.090;21.954;2022-10-16T01:02:13;152145.84;;;12.33;100.00
54503;BME280;40411;50.090;21.954;2022-10-16T01:04:43;152118.94;;;12.22;100.00
54503;BME280;40411;50.090;21.954;2022-10-16T01:13:12;151953.63;;;11.56;100.00
54503;BME280;40411;50.090;21.954;2022-10-16T01:21:12;151838.41;;;11.10;100.00
54503;BME280;40411;50.090;21.954;2022-10-16T01:29:39;151757.75;;;10.78;100.00
54503;BME280;40411;50.090;21.954;2022-10-16T01:32:22;151728.31;;;10.66;100.00
54503;BME280;40411;50.090;21.954;2022-10-16T01:37:42;151760.34;;;10.79;100.00
54503;BME280;40411;50.090;21.954;2022-10-16T01:40:13;151744.94;;;10.72;100.00
54503;BME280;40411;50.090;21.954;2022-10-16T01:42:42;151718.09;;;10.62;100.00
54503;BME280;40411;50.090;21.954;2022-10-16T01:45:13;151701.44;;;10.55;100.00
54503;BME280;40411;50.090;21.954;2022-10-16T01:47:40;151693.75;;;10.52;100.00
54503;BME280;40411;50.090;21.954;2022-10-16T01:50:07;151700.16;;;10.55;100.00
54503;BME280;40411;50.090;21.954;2022-10-16T01:52:39;151691.22;;;10.51;100.00
54503;BME280;40411;50.090;21.954;2022-10-16T01:55:07;151686.09;;;10.49;100.00
54503;BME280;40411;50.090;21.954;2022-10-16T01:57:36;151664.34;;;10.40;100.00
54503;BME280;40411;50.090;21.954;2022-10-16T02:00:09;151688.63;;;10.50;100.00
54503;BME280;40411;50.090;21.954;2022-10-16T02:02:41;151710.44;;;10.59;100.00
54503;BME280;40411;50.090;21.954;2022-10-16T02:05:20;151720.66;;;10.63;100.00
54503;BME280;40411;50.090;21.954;2022-10-16T02:07:49;151733.47;;;10.68;100.00
54503;BME280;40411;50.090;21.954;2022-10-16T02:10:15;151746.25;;;10.73;100.00
54503;BME280;40411;50.090;21.954;2022-10-16T02:12:45;151751.34;;;10.75;100.00
54503;BME280;40411;50.090;21.954;2022-10-16T02:15:13;151753.94;;;10.76;100.00
54503;BME280;40411;50.090;21.954;2022-10-16T02:17:39;151752.66;;;10.76;100.00
54503;BME280;40411;50.090;21.954;2022-10-16T02:20:05;151801.31;;;10.95;100.00
54503;BME280;40411;50.090;21.954;2022-10-16T02:22:38;151829.47;;;11.06;100.00
54503;BME280;40411;50.090;21.954;2022-10-16T02:25:30;151861.44;;;11.19;100.00
54503;BME280;40411;50.090;21.954;2022-10-16T02:28:14;151870.41;;;11.23;100.00
54503;BME280;40411;50.090;21.954;2022-10-16T02:30:53;151862.72;;;11.19;100.00
54503;BME280;40411;50.090;21.954;2022-10-16T02:33:23;151860.16;;;11.18;100.00
54503;BME280;40411;50.090;21.954;2022-10-16T02:35:51;151806.38;;;10.97;100.00
54503;BME280;40411;50.090;21.954;2022-10-16T02:38:17;151811.53;;;10.99;100.00
54503;BME280;40411;50.090;21.954;2022-10-16T02:40:44;151821.78;;;11.03;100.00
54503;BME280;40411;50.090;21.954;2022-10-16T02:43:10;151837.16;;;11.09;100.00
54503;BME280;40411;50.090;21.954;2022-10-16T02:45:37;151862.72;;;11.19;100.00
54503;BME280;40411;50.090;21.954;2022-10-16T02:48:04;151901.16;;;11.35;100.00
54503;BME280;40411;50.090;21.954;2022-10-16T02:50:30;151969.03;;;11.62;100.00
54503;BME280;40411;50.090;21.954;2022-10-16T02:52:55;151957.50;;;11.57;100.00
54503;BME280;40411;50.090;21.954;2022-10-16T02:55:21;151938.28;;;11.50;100.00
54503;BME280;40411;50.090;21.954;2022-10-16T02:57:47;151917.78;;;11.41;100.00
54503;BME280;40411;50.090;21.954;2022-10-16T03:00:15;151878.13;;;11.26;100.00
54503;BME280;40411;50.090;21.954;2022-10-16T03:02:41;151876.81;;;11.25;100.00
54503;BME280;40411;50.090;21.954;2022-10-16T03:05:07;151942.13;;;11.51;100.00
54503;BME280;40411;50.090;21.954;2022-10-16T03:07:34;151994.63;;;11.72;100.00
54503;BME280;40411;50.090;21.954;2022-10-16T03:10:00;152076.66;;;12.05;100.00
54503;BME280;40411;50.090;21.954;2022-10-16T03:12:27;152118.94;;;12.22;100.00
54503;BME280;40411;50.090;21.954;2022-10-16T03:14:53;152170.16;;;12.42;100.00
54503;BME280;40411;50.090;21.954;2022-10-16T03:17:18;152209.91;;;12.58;100.00
54503;BME280;40411;50.090;21.954;2022-10-16T03:19:44;152262.47;;;12.79;100.00
54503;BME280;40411;50.090;21.954;2022-10-16T03:22:10;152288.06;;;12.89;100.00
54503;BME280;40411;50.090;21.954;2022-10-16T03:24:36;152285.53;;;12.88;100.00
54503;BME280;40411;50.090;21.954;2022-10-16T03:27:02;152321.41;;;13.03;100.00
54503;BME280;40411;50.090;21.954;2022-10-16T03:29:28;152320.13;;;13.02;100.00
54503;BME280;40411;50.090;21.954;2022-10-16T03:31:56;152345.78;;;13.12;100.00
54503;BME280;40411;50.090;21.954;2022-10-16T03:34:22;152347.06;;;13.13;100.00
54503;BME280;40411;50.090;21.954;2022-10-16T03:36:48;152334.25;;;13.08;100.00
54503;BME280;40411;50.090;21.954;2022-10-16T03:39:14;152367.59;;;13.21;100.00
54503;BME280;40411;50.090;21.954;2022-10-16T03:41:39;152349.63;;;13.14;100.00
54503;BME280;40411;50.090;21.954;2022-10-16T03:44:05;152404.81;;;13.36;100.00
54503;BME280;40411;50.090;21.954;2022-10-16T03:46:31;152417.63;;;13.41;100.00
54503;BME280;40411;50.090;21.954;2022-10-16T03:48:57;152408.66;;;13.37;100.00
54503;BME280;40411;50.090;21.954;2022-10-16T03:51:23;152417.63;;;13.41;100.00
54503;BME280;40411;50.090;21.954;2022-10-16T03:53:49;152411.22;;;13.38;100.00
54503;BME280;40411;50.090;21.954;2022-10-16T03:56:15;152421.44;;;13.43;100.00
54503;BME280;40411;50.090;21.954;2022-10-16T03:58:41;152448.38;;;13.53;100.00
54503;BME280;40411;50.090;21.954;2022-10-16T04:01:06;152477.91;;;13.65;100.00
54503;BME280;40411;50.090;21.954;2022-10-16T04:03:33;152475.31;;;13.64;100.00
54503;BME280;40411;50.090;21.954;2022-10-16T04:05:58;152472.78;;;13.63;100.00
54503;BME280;40411;50.090;21.954;2022-10-16T04:08:24;152494.56;;;13.72;100.00
54503;BME280;40411;50.090;21.954;2022-10-16T04:10:50;152490.69;;;13.70;100.00
54503;BME280;40411;50.090;21.954;2022-10-16T04:13:16;152498.38;;;13.73;100.00
54503;BME280;40411;50.090;21.954;2022-10-16T04:15:44;152493.28;;;13.71;100.00
54503;BME280;40411;50.090;21.954;2022-10-16T04:18:10;152495.84;;;13.72;100.00
54503;BME280;40411;50.090;21.954;2022-10-16T04:20:36;152499.72;;;13.74;100.00
54503;BME280;40411;50.090;21.954;2022-10-16T04:23:02;152521.50;;;13.82;100.00
54503;BME280;40411;50.090;21.954;2022-10-16T04:25:28;152508.69;;;13.77;100.00
54503;BME280;40411;50.090;21.954;2022-10-16T04:27:54;152495.84;;;13.72;100.00
54503;BME280;40411;50.090;21.954;2022-10-16T04:30:21;152493.28;;;13.71;100.00
54503;BME280;40411;50.090;21.954;2022-10-16T04:32:49;152466.34;;;13.60;100.00
54503;BME280;40411;50.090;21.954;2022-10-16T04:35:16;152477.91;;;13.65;100.00
54503;BME280;40411;50.090;21.954;2022-10-16T04:37:42;152457.41;;;13.57;100.00
54503;BME280;40411;50.090;21.954;2022-10-16T04:40:08;152465.09;;;13.60;100.00
54503;BME280;40411;50.090;21.954;2022-10-16T04:42:34;152438.16;;;13.49;100.00
54503;BME280;40411;50.090;21.954;2022-10-16T04:45:00;152470.19;;;13.62;100.00
54503;BME280;40411;50.090;21.954;2022-10-16T04:47:26;152459.94;;;13.58;100.00
54503;BME280;40411;50.090;21.954;2022-10-16T04:49:52;152427.88;;;13.45;100.00
54503;BME280;40411;50.090;21.954;2022-10-16T04:52:17;152444.56;;;13.52;100.00
54503;BME280;40411;50.090;21.954;2022-10-16T04:54:44;152411.22;;;13.38;100.00
54503;BME280;40411;50.090;21.954;2022-10-16T04:57:11;152408.66;;;13.37;100.00
54503;BME280;40411;50.090;21.954;2022-10-16T04:59:36;152379.16;;;13.26;100.00
54503;BME280;40411;50.090;21.954;2022-10-16T05:02:03;152383.00;;;13.27;100.00
54503;BME280;40411;50.090;21.954;2022-10-16T05:04:29;152403.53;;;13.35;100.00
54503;BME280;40411;50.090;21.954;2022-10-16T05:06:55;152426.59;;;13.45;100.00
54503;BME280;40411;50.090;21.954;2022-10-16T05:09:20;152426.59;;;13.45;100.00
54503;BME280;40411;50.090;21.954;2022-10-16T05:11:46;152459.94;;;13.58;100.00
54503;BME280;40411;50.090;21.954;2022-10-16T05:14:12;152459.94;;;13.58;100.00
54503;BME280;40411;50.090;21.954;2022-10-16T05:16:38;152481.75;;;13.67;100.00
54503;BME280;40411;50.090;21.954;2022-10-16T05:19:04;152509.94;;;13.78;100.00
54503;BME280;40411;50.090;21.954;2022-10-16T05:21:30;152507.41;;;13.77;100.00
54503;BME280;40411;50.090;21.954;2022-10-16T05:23:56;152504.81;;;13.76;100.00
54503;BME280;40411;50.090;21.954;2022-10-16T05:26:22;152508.69;;;13.77;100.00
54503;BME280;40411;50.090;21.954;2022-10-16T05:28:49;152513.81;;;13.79;100.00
54503;BME280;40411;50.090;21.954;2022-10-16T05:31:15;152559.97;;;13.98;100.00
54503;BME280;40411;50.090;21.954;2022-10-16T05:33:41;152554.88;;;13.96;100.00
54503;BME280;40411;50.090;21.954;2022-10-16T05:36:08;152575.34;;;14.04;100.00
54503;BME280;40411;50.090;21.954;2022-10-16T05:38:35;152621.53;;;14.22;100.00
54503;BME280;40411;50.090;21.954;2022-10-16T05:41:03;152629.25;;;14.25;100.00
54503;BME280;40411;50.090;21.954;2022-10-16T05:43:29;152635.66;;;14.28;100.00
54503;BME280;40411;50.090;21.954;2022-10-16T05:46:03;152642.06;;;14.30;100.00
54503;BME280;40411;50.090;21.954;2022-10-16T05:48:29;152642.06;;;14.30;100.00
54503;BME280;40411;50.090;21.954;2022-10-16T05:51:03;152688.28;;;14.49;100.00
54503;BME280;40411;50.090;21.954;2022-10-16T05:53:31;152688.28;;;14.49;100.00
54503;BME280;40411;50.090;21.954;2022-10-16T05:55:57;152729.34;;;14.65;100.00
54503;BME280;40411;50.090;21.954;2022-10-16T05:58:24;152726.81;;;14.64;100.00
54503;BME280;40411;50.090;21.954;2022-10-16T06:00:57;152726.81;;;14.64;100.00
54503;BME280;40411;50.090;21.954;2022-10-16T06:03:24;152730.69;;;14.66;100.00
54503;BME280;40411;50.090;21.954;2022-10-16T06:05:50;152738.38;;;14.69;100.00
54503;BME280;40411;50.090;21.954;2022-10-16T06:08:17;152760.19;;;14.78;100.00
54503;BME280;40411;50.090;21.954;2022-10-16T06:10:44;152721.66;;;14.62;100.00
54503;BME280;40411;50.090;21.954;2022-10-16T06:13:10;152730.69;;;14.66;100.00
54503;BME280;40411;50.090;21.954;2022-10-16T06:15:37;152762.72;;;14.79;100.00
54503;BME280;40411;50.090;21.954;2022-10-16T06:18:05;152776.84;;;14.84;100.00
54503;BME280;40411;50.090;21.954;2022-10-16T06:20:31;152771.75;;;14.82;100.00
54503;BME280;40411;50.090;21.954;2022-10-16T06:22:57;152780.72;;;14.86;100.00
54503;BME280;40411;50.090;21.954;2022-10-16T06:25:23;152773.03;;;14.83;100.00
54503;BME280;40411;50.090;21.954;2022-10-16T06:27:48;152789.69;;;14.89;100.00
54503;BME280;40411;50.090;21.954;2022-10-16T06:30:14;152785.88;;;14.88;100.00
54503;BME280;40411;50.090;21.954;2022-10-16T06:32:40;152806.41;;;14.96;100.00
54503;BME280;40411;50.090;21.954;2022-10-16T06:35:06;152851.31;;;15.14;100.00
54503;BME280;40411;50.090;21.954;2022-10-16T06:37:32;152883.44;;;15.27;100.00
54503;BME280;40411;50.090;21.954;2022-10-16T06:39:58;152906.50;;;15.36;100.00
54503;BME280;40411;50.090;21.954;2022-10-16T06:42:25;152916.75;;;15.40;100.00
54503;BME280;40411;50.090;21.954;2022-10-16T06:44:51;153000.28;;;15.73;100.00
54503;BME280;40411;50.090;21.954;2022-10-16T06:47:17;152977.13;;;15.64;100.00
54503;BME280;40411;50.090;21.954;2022-10-16T06:49:43;153004.16;;;15.75;100.00
54503;BME280;40411;50.090;21.954;2022-10-16T06:52:09;152999.00;;;15.73;100.00
54503;BME280;40411;50.090;21.954;2022-10-16T06:54:35;152978.41;;;15.64;100.00
54503;BME280;40411;50.090;21.954;2022-10-16T06:57:01;153042.66;;;15.90;100.00
54503;BME280;40411;50.090;21.954;2022-10-16T06:59:27;153114.63;;;16.19;100.00
54503;BME280;40411;50.090;21.954;2022-10-16T07:01:53;153122.31;;;16.22;100.00
54503;BME280;40411;50.090;21.954;2022-10-16T07:04:19;153147.97;;;16.32;100.00
54503;BME280;40411;50.090;21.954;2022-10-16T07:06:44;153189.09;;;16.48;100.00
54503;BME280;40411;50.090;21.954;2022-10-16T07:09:10;153189.09;;;16.48;100.00
54503;BME280;40411;50.090;21.954;2022-10-16T07:11:38;153222.50;;;16.62;100.00
54503;BME280;40411;50.090;21.954;2022-10-16T07:14:14;153299.66;;;16.92;100.00
54503;BME280;40411;50.090;21.954;2022-10-16T07:16:40;153315.06;;;16.98;100.00
54503;BME280;40411;50.090;21.954;2022-10-16T07:19:06;153348.50;;;17.12;100.00
54503;BME280;40411;50.090;21.954;2022-10-16T07:21:34;153342.06;;;17.09;100.00
54503;BME280;40411;50.090;21.954;2022-10-16T07:24:01;153356.19;;;17.15;100.00
54503;BME280;40411;50.090;21.954;2022-10-16T07:26:29;153333.09;;;17.06;100.00
54503;BME280;40411;50.090;21.954;2022-10-16T07:28:56;153392.19;;;17.29;100.00
54503;BME280;40411;50.090;21.954;2022-10-16T07:31:23;153375.50;;;17.23;100.00
54503;BME280;40411;50.090;21.954;2022-10-16T07:33:49;153366.50;;;17.19;100.00
54503;BME280;40411;50.090;21.954;2022-10-16T07:36:17;153371.63;;;17.21;100.00
54503;BME280;40411;50.090;21.954;2022-10-16T07:38:45;153309.91;;;16.96;100.00
54503;BME280;40411;50.090;21.954;2022-10-16T07:41:16;153309.91;;;16.96;100.00
54503;BME280;40411;50.090;21.954;2022-10-16T07:43:50;153325.38;;;17.03;100.00
54503;BME280;40411;50.090;21.954;2022-10-16T07:46:17;153289.41;;;16.88;100.00
54503;BME280;40411;50.090;21.954;2022-10-16T07:48:43;153366.50;;;17.19;100.00
54503;BME280;40411;50.090;21.954;2022-10-16T07:51:14;153451.34;;;17.53;100.00
54503;BME280;40411;50.090;21.954;2022-10-16T07:53:41;153628.81;;;18.23;100.00
54503;BME280;40411;50.090;21.954;2022-10-16T07:56:07;153906.78;;;19.34;100.00
54503;BME280;40411;50.090;21.954;2022-10-16T07:58:34;154221.00;;;20.59;94.48
54503;BME280;40411;50.090;21.954;2022-10-16T08:01:04;154309.91;;;20.94;90.49
54503;BME280;40411;50.090;21.954;2022-10-16T08:03:31;154472.28;;;21.58;87.43
54503;BME280;40411;50.090;21.954;2022-10-16T08:05:57;154664.41;;;22.35;83.60
54503;BME280;40411;50.090;21.954;2022-10-16T08:08:24;154850.13;;;23.08;68.60
54503;BME280;40411;50.090;21.954;2022-10-16T08:10:49;154895.25;;;23.26;62.98
54503;BME280;40411;50.090;21.954;2022-10-16T08:13:15;154958.47;;;23.51;63.05
54503;BME280;40411;50.090;21.954;2022-10-16T08:15:42;154581.84;;;22.02;65.19
54503;BME280;40411;50.090;21.954;2022-10-16T08:18:09;154410.38;;;21.34;66.78
54503;BME280;40411;50.090;21.954;2022-10-16T08:20:35;154293.16;;;20.87;68.48
54503;BME280;40411;50.090;21.954;2022-10-16T08:23:02;154361.41;;;21.14;69.79
54503;BME280;40411;50.090;21.954;2022-10-16T08:25:28;154378.19;;;21.21;67.89
54503;BME280;40411;50.090;21.954;2022-10-16T08:27:54;154260.94;;;20.74;69.39
54503;BME280;40411;50.090;21.954;2022-10-16T08:30:21;154266.09;;;20.77;68.14
54503;BME280;40411;50.090;21.954;2022-10-16T08:32:48;154012.38;;;19.76;71.40
54503;BME280;40411;50.090;21.954;2022-10-16T08:35:14;153962.16;;;19.56;71.65
54503;BME280;40411;50.090;21.954;2022-10-16T08:37:40;153909.34;;;19.35;72.33
54503;BME280;40411;50.090;21.954;2022-10-16T08:40:22;153978.84;;;19.62;71.96
54503;BME280;40411;50.090;21.954;2022-10-16T08:48:30;154179.78;;;20.42;67.90
54503;BME280;40411;50.090;21.954;2022-10-16T08:51:01;154366.56;;;21.16;65.10
54503;BME280;40411;50.090;21.954;2022-10-16T08:53:58;154795.91;;;22.87;61.54
54503;BME280;40411;50.090;21.954;2022-10-16T08:56:25;155188.22;;;24.42;57.20
54503;BME280;40411;50.090;21.954;2022-10-16T08:58:52;155349.66;;;25.06;53.88
54503;BME280;40411;50.090;21.954;2022-10-16T09:01:20;155066.94;;;23.94;54.54
54503;BME280;40411;50.090;21.954;2022-10-16T09:11:53;155398.78;;;25.26;52.56
54503;BME280;40411;50.090;21.954;2022-10-16T09:22:47;155237.34;;;24.62;50.71
54503;BME280;40411;50.090;21.954;2022-10-16T09:25:16;155214.13;;;24.52;51.85
54503;BME280;40411;50.090;21.954;2022-10-16T09:27:46;155141.78;;;24.24;53.58
54503;BME280;40411;50.090;21.954;2022-10-16T09:30:15;154890.13;;;23.24;54.66
54503;BME280;40411;50.090;21.954;2022-10-16T09:32:43;155054.03;;;23.89;54.79
54503;BME280;40411;50.090;21.954;2022-10-16T09:35:16;154984.28;;;23.61;54.14
54503;BME280;40411;50.090;21.954;2022-10-16T09:37:44;155028.19;;;23.79;54.94
54503;BME280;40411;50.090;21.954;2022-10-16T09:40:26;155029.53;;;23.79;53.07
54503;BME280;40411;50.090;21.954;2022-10-16T09:45:28;155217.97;;;24.54;52.64
54503;BME280;40411;50.090;21.954;2022-10-16T09:47:54;155115.97;;;24.14;51.77
54503;BME280;40411;50.090;21.954;2022-10-16T09:50:27;155028.19;;;23.79;53.40
54503;BME280;40411;50.090;21.954;2022-10-16T09:55:52;155132.72;;;24.20;52.04
54503;BME280;40411;50.090;21.954;2022-10-16T09:58:21;155016.63;;;23.74;53.24
54503;BME280;40411;50.090;21.954;2022-10-16T10:00:51;155004.94;;;23.70;53.93
54503;BME280;40411;50.090;21.954;2022-10-16T10:03:33;155050.19;;;23.88;52.52
54503;BME280;40411;50.090;21.954;2022-10-16T10:06:06;155045.00;;;23.85;53.38
54503;BME280;40411;50.090;21.954;2022-10-16T10:08:33;155247.69;;;24.66;51.65
54503;BME280;40411;50.090;21.954;2022-10-16T10:10:58;155152.09;;;24.28;52.34
54503;BME280;40411;50.090;21.954;2022-10-16T10:13:24;155301.88;;;24.87;50.88
54503;BME280;40411;50.090;21.954;2022-10-16T10:15:53;155300.59;;;24.87;50.76
54503;BME280;40411;50.090;21.954;2022-10-16T10:18:21;155150.81;;;24.27;51.81
54503;BME280;40411;50.090;21.954;2022-10-16T10:20:59;155216.69;;;24.53;51.22
54503;BME280;40411;50.090;21.954;2022-10-16T10:23:29;155292.84;;;24.84;51.45
54503;BME280;40411;50.090;21.954;2022-10-16T10:31:39;155247.69;;;24.66;49.90
54503;BME280;40411;50.090;21.954;2022-10-16T10:34:35;155078.56;;;23.99;50.74
54503;BME280;40411;50.090;21.954;2022-10-16T10:37:30;155144.34;;;24.25;49.83
54503;BME280;40411;50.090;21.954;2022-10-16T10:40:30;155134.00;;;24.21;50.10
54503;BME280;40411;50.090;21.954;2022-10-16T10:45:56;155322.53;;;24.95;49.11
54503;BME280;40411;50.090;21.954;2022-10-16T11:02:18;155188.22;;;24.42;48.55
54503;BME280;40411;50.090;21.954;2022-10-16T11:07:34;155180.50;;;24.39;49.29
54503;BME280;40411;50.090;21.954;2022-10-16T11:10:13;155278.66;;;24.78;49.22
54503;BME280;40411;50.090;21.954;2022-10-16T11:12:47;155260.56;;;24.71;48.59
54503;BME280;40411;50.090;21.954;2022-10-16T11:15:19;155474.97;;;25.56;47.52
54503;BME280;40411;50.090;21.954;2022-10-16T11:18:16;155350.94;;;25.07;48.06
54503;BME280;40411;50.090;21.954;2022-10-16T11:20:49;155310.94;;;24.91;48.60
54503;BME280;40411;50.090;21.954;2022-10-16T11:23:23;155252.81;;;24.68;49.04
54503;BME280;40411;50.090;21.954;2022-10-16T11:25:51;155232.16;;;24.60;50.04
54503;BME280;40411;50.090;21.954;2022-10-16T11:28:44;155103.06;;;24.08;50.35
54503;BME280;40411;50.090;21.954;2022-10-16T11:31:19;155030.81;;;23.80;50.96
54503;BME280;40411;50.090;21.954;2022-10-16T11:33:54;154949.47;;;23.48;51.66
54503;BME280;40411;50.090;21.954;2022-10-16T11:36:53;154988.19;;;23.63;52.17
54503;BME280;40411;50.090;21.954;2022-10-16T11:39:25;155059.19;;;23.91;53.16
54503;BME280;40411;50.090;21.954;2022-10-16T11:42:11;154986.91;;;23.62;52.14
54503;BME280;40411;50.090;21.954;2022-10-16T11:50:22;154896.59;;;23.27;52.40
54503;BME280;40411;50.090;21.954;2022-10-16T11:55:37;154821.78;;;22.97;53.83
54503;BME280;40411;50.090;21.954;2022-10-16T11:58:14;154798.53;;;22.88;54.56
54503;BME280;40411;50.090;21.954;2022-10-16T12:08:49;154663.09;;;22.34;56.76
54503;BME280;40411;50.090;21.954;2022-10-16T12:17:36;154679.88;;;22.41;56.15
54503;BME280;40411;50.090;21.954;2022-10-16T12:19:36;154713.41;;;22.54;55.56
54503;BME280;40411;50.090;21.954;2022-10-16T12:22:03;154731.44;;;22.61;55.74
54503;BME280;40411;50.090;21.954;2022-10-16T12:24:42;154763.69;;;22.74;55.24
54503;BME280;40411;50.090;21.954;2022-10-16T12:27:30;154783.06;;;22.82;55.52
54503;BME280;40411;50.090;21.954;2022-10-16T12:30:00;154826.94;;;22.99;54.73
54503;BME280;40411;50.090;21.954;2022-10-16T12:35:00;154700.50;;;22.49;57.00
54503;BME280;40411;50.090;21.954;2022-10-16T12:39:56;154764.97;;;22.74;55.88
54503;BME280;40411;50.090;21.954;2022-10-16T12:44:52;154757.25;;;22.71;56.02
54503;BME280;40411;50.090;21.954;2022-10-16T12:47:21;154740.44;;;22.65;56.47
54503;BME280;40411;50.090;21.954;2022-10-16T12:49:54;154690.16;;;22.45;55.32
54503;BME280;40411;50.090;21.954;2022-10-16T12:52:39;154611.50;;;22.14;56.21
54503;BME280;40411;50.090;21.954;2022-10-16T12:55:15;154570.25;;;21.97;56.24
54503;BME280;40411;50.090;21.954;2022-10-16T13:00:57;154598.59;;;22.08;56.78
54503;BME280;40411;50.090;21.954;2022-10-16T13:07:06;154703.06;;;22.50;56.43
54503;BME280;40411;50.090;21.954;2022-10-16T13:09:58;154599.88;;;22.09;55.59
54503;BME280;40411;50.090;21.954;2022-10-16T13:12:37;154517.41;;;21.76;56.89
54503;BME280;40411;50.090;21.954;2022-10-16T13:18:38;154460.72;;;21.54;57.60
54503;BME280;40411;50.090;21.954;2022-10-16T13:20:59;154432.38;;;21.42;57.64
54503;BME280;40411;50.090;21.954;2022-10-16T13:23:51;154403.97;;;21.31;58.24
54503;BME280;40411;50.090;21.954;2022-10-16T13:28:47;154362.72;;;21.15;59.04
54503;BME280;40411;50.090;21.954;2022-10-16T13:31:19;154373.03;;;21.19;57.93
54503;BME280;40411;50.090;21.954;2022-10-16T13:33:48;154321.50;;;20.98;58.37
54503;BME280;40411;50.090;21.954;2022-10-16T13:36:29;154303.44;;;20.91;58.64
54503;BME280;40411;50.090;21.954;2022-10-16T13:41:44;154233.88;;;20.64;60.54
54503;BME280;40411;50.090;21.954;2022-10-16T13:44:18;154248.06;;;20.69;60.86
54503;BME280;40411;50.090;21.954;2022-10-16T13:46:45;154233.88;;;20.64;59.85
54503;BME280;40411;50.090;21.954;2022-10-16T13:49:16;154241.59;;;20.67;60.56
54503;BME280;40411;50.090;21.954;2022-10-16T13:51:57;154233.88;;;20.64;60.16
54503;BME280;40411;50.090;21.954;2022-10-16T13:54:24;154277.72;;;20.81;59.95
54503;BME280;40411;50.090;21.954;2022-10-16T13:56:50;154321.50;;;20.98;59.87
54503;BME280;40411;50.090;21.954;2022-10-16T14:01:50;154355.00;;;21.12;59.42
54503;BME280;40411;50.090;21.954;2022-10-16T14:04:17;154324.06;;;21.00;59.84
54503;BME280;40411;50.090;21.954;2022-10-16T14:06:45;154154.00;;;20.32;60.98
54503;BME280;40411;50.090;21.954;2022-10-16T14:09:29;154126.97;;;20.21;60.54
54503;BME280;40411;50.090;21.954;2022-10-16T14:12:06;154060.03;;;19.95;61.49
54503;BME280;40411;50.090;21.954;2022-10-16T14:14:44;154065.16;;;19.97;62.08
54503;BME280;40411;50.090;21.954;2022-10-16T14:19:46;154042.00;;;19.88;62.61
54503;BME280;40411;50.090;21.954;2022-10-16T14:24:58;154038.09;;;19.86;63.01
54503;BME280;40411;50.090;21.954;2022-10-16T14:27:35;153964.69;;;19.57;63.35
54503;BME280;40411;50.090;21.954;2022-10-16T14:32:33;153863.00;;;19.16;64.68
54503;BME280;40411;50.090;21.954;2022-10-16T14:34:59;153832.13;;;19.04;65.10
54503;BME280;40411;50.090;21.954;2022-10-16T14:37:29;153780.69;;;18.84;65.77
54503;BME280;40411;50.090;21.954;2022-10-16T14:39:55;153770.38;;;18.80;66.24
54503;BME280;40411;50.090;21.954;2022-10-16T14:42:24;153754.88;;;18.73;67.02
54503;BME280;40411;50.090;21.954;2022-10-16T14:44:52;153740.75;;;18.68;66.82
54503;BME280;40411;50.090;21.954;2022-10-16T14:47:20;153770.38;;;18.80;66.71
54503;BME280;40411;50.090;21.954;2022-10-16T14:49:51;153754.88;;;18.73;67.00
54503;BME280;40411;50.090;21.954;2022-10-16T14:52:18;153760.09;;;18.75;67.15
54503;BME280;40411;50.090;21.954;2022-10-16T14:54:48;153762.66;;;18.77;66.77